Terminal Aerodrome Forecast
Issued by NWS Huntsville, AL

Current Version | Previous Version | Text Only | Print | Product List | Glossary On
Versions: 1 2 3 4 5 6 7 8 9 10 11 12 13 14 15 16 17 18 19 20 21 22 23 24 25 26 27 28 29 30 31 32 33
000
FTUS44 KHUN 261124
TAFHSV
TAF
KHSV 261124Z 2612/2712 18006KT P6SM FEW250
     FM261500 17012G17KT P6SM FEW040 FEW250
     FM261800 17017G22KT P6SM FEW040 FEW250
     FM270100 14016G25KT P6SM BKN040
     FM270800 16016G26KT P6SM VCTS OVC020CB
     FM271100 23015G21KT P6SM OVC020=

USA.gov is the U.S. government's official web portal to all federal, state and local government web resources and services.